sensor_id;sensor_type;location;lat;lon;timestamp;P1;durP1;ratioP1;P2;durP2;ratioP2
51438;SDS011;38816;51.142;-0.974;2023-11-21T00:01:58;5.13;;;2.65;;
51438;SDS011;38816;51.142;-0.974;2023-11-21T00:04:24;3.83;;;2.53;;
51438;SDS011;38816;51.142;-0.974;2023-11-21T00:06:50;7.38;;;2.88;;
51438;SDS011;38816;51.142;-0.974;2023-11-21T00:09:16;5.72;;;3.40;;
51438;SDS011;38816;51.142;-0.974;2023-11-21T00:11:42;3.22;;;2.83;;
51438;SDS011;38816;51.142;-0.974;2023-11-21T00:14:09;6.45;;;3.13;;
51438;SDS011;38816;51.142;-0.974;2023-11-21T00:16:35;3.53;;;3.00;;
51438;SDS011;38816;51.142;-0.974;2023-11-21T00:19:01;3.63;;;2.70;;
51438;SDS011;38816;51.142;-0.974;2023-11-21T00:21:26;3.95;;;3.25;;
51438;SDS011;38816;51.142;-0.974;2023-11-21T00:23:52;5.90;;;2.85;;
51438;SDS011;38816;51.142;-0.974;2023-11-21T00:26:17;6.97;;;3.67;;
51438;SDS011;38816;51.142;-0.974;2023-11-21T00:28:43;3.50;;;3.17;;
51438;SDS011;38816;51.142;-0.974;2023-11-21T00:31:08;4.45;;;3.42;;
51438;SDS011;38816;51.142;-0.974;2023-11-21T00:33:34;4.43;;;3.50;;
51438;SDS011;38816;51.142;-0.974;2023-11-21T00:35:59;3.65;;;3.33;;
51438;SDS011;38816;51.142;-0.974;2023-11-21T00:38:25;4.70;;;3.70;;
51438;SDS011;38816;51.142;-0.974;2023-11-21T00:40:52;6.85;;;3.88;;
51438;SDS011;38816;51.142;-0.974;2023-11-21T00:43:21;4.30;;;3.40;;
51438;SDS011;38816;51.142;-0.974;2023-11-21T00:45:49;7.25;;;3.53;;
51438;SDS011;38816;51.142;-0.974;2023-11-21T00:48:15;4.88;;;3.13;;
51438;SDS011;38816;51.142;-0.974;2023-11-21T00:50:40;8.35;;;4.13;;
51438;SDS011;38816;51.142;-0.974;2023-11-21T00:53:07;8.40;;;4.35;;
51438;SDS011;38816;51.142;-0.974;2023-11-21T00:55:32;6.35;;;3.67;;
51438;SDS011;38816;51.142;-0.974;2023-11-21T00:57:58;12.52;;;3.85;;
51438;SDS011;38816;51.142;-0.974;2023-11-21T01:00:24;6.30;;;3.75;;
51438;SDS011;38816;51.142;-0.974;2023-11-21T01:02:50;5.13;;;3.17;;
51438;SDS011;38816;51.142;-0.974;2023-11-21T01:05:15;5.13;;;3.72;;
51438;SDS011;38816;51.142;-0.974;2023-11-21T01:07:41;6.22;;;3.65;;
51438;SDS011;38816;51.142;-0.974;2023-11-21T01:10:06;5.15;;;3.50;;
51438;SDS011;38816;51.142;-0.974;2023-11-21T01:12:36;3.97;;;3.58;;
51438;SDS011;38816;51.142;-0.974;2023-11-21T01:15:03;5.82;;;3.83;;
51438;SDS011;38816;51.142;-0.974;2023-11-21T01:17:32;9.38;;;8.55;;
51438;SDS011;38816;51.142;-0.974;2023-11-21T01:19:59;5.80;;;3.90;;
51438;SDS011;38816;51.142;-0.974;2023-11-21T01:22:25;9.80;;;4.05;;
51438;SDS011;38816;51.142;-0.974;2023-11-21T01:24:51;5.15;;;4.32;;
51438;SDS011;38816;51.142;-0.974;2023-11-21T01:27:19;6.68;;;3.90;;
51438;SDS011;38816;51.142;-0.974;2023-11-21T01:29:45;4.22;;;3.83;;
51438;SDS011;38816;51.142;-0.974;2023-11-21T01:32:10;5.70;;;4.20;;
51438;SDS011;38816;51.142;-0.974;2023-11-21T01:34:36;5.53;;;3.65;;
51438;SDS011;38816;51.142;-0.974;2023-11-21T01:37:02;6.80;;;3.63;;
51438;SDS011;38816;51.142;-0.974;2023-11-21T01:39:29;7.57;;;3.90;;
51438;SDS011;38816;51.142;-0.974;2023-11-21T01:41:55;7.30;;;3.90;;
51438;SDS011;38816;51.142;-0.974;2023-11-21T01:44:23;4.57;;;3.83;;
51438;SDS011;38816;51.142;-0.974;2023-11-21T01:46:49;4.32;;;3.92;;
51438;SDS011;38816;51.142;-0.974;2023-11-21T01:49:15;8.95;;;4.15;;
51438;SDS011;38816;51.142;-0.974;2023-11-21T01:51:43;6.32;;;3.88;;
51438;SDS011;38816;51.142;-0.974;2023-11-21T01:54:14;5.43;;;3.80;;
51438;SDS011;38816;51.142;-0.974;2023-11-21T01:56:39;6.78;;;3.97;;
51438;SDS011;38816;51.142;-0.974;2023-11-21T01:59:05;4.57;;;3.97;;
51438;SDS011;38816;51.142;-0.974;2023-11-21T02:01:32;10.55;;;4.20;;
51438;SDS011;38816;51.142;-0.974;2023-11-21T02:03:58;4.38;;;3.88;;
51438;SDS011;38816;51.142;-0.974;2023-11-21T02:06:24;8.07;;;4.90;;
51438;SDS011;38816;51.142;-0.974;2023-11-21T02:08:50;8.85;;;4.57;;
51438;SDS011;38816;51.142;-0.974;2023-11-21T02:11:16;6.70;;;4.85;;
51438;SDS011;38816;51.142;-0.974;2023-11-21T02:13:42;7.22;;;4.95;;
51438;SDS011;38816;51.142;-0.974;2023-11-21T02:16:09;8.80;;;4.75;;
51438;SDS011;38816;51.142;-0.974;2023-11-21T02:18:37;7.75;;;5.43;;
51438;SDS011;38816;51.142;-0.974;2023-11-21T02:21:04;7.78;;;5.05;;
51438;SDS011;38816;51.142;-0.974;2023-11-21T02:23:30;9.57;;;5.68;;
51438;SDS011;38816;51.142;-0.974;2023-11-21T02:25:55;8.32;;;5.38;;
51438;SDS011;38816;51.142;-0.974;2023-11-21T02:28:21;10.02;;;5.03;;
51438;SDS011;38816;51.142;-0.974;2023-11-21T02:30:51;8.25;;;5.57;;
51438;SDS011;38816;51.142;-0.974;2023-11-21T02:33:20;7.43;;;5.22;;
51438;SDS011;38816;51.142;-0.974;2023-11-21T02:35:46;6.93;;;4.97;;
51438;SDS011;38816;51.142;-0.974;2023-11-21T02:38:12;9.45;;;5.70;;
51438;SDS011;38816;51.142;-0.974;2023-11-21T02:40:37;11.27;;;5.95;;
51438;SDS011;38816;51.142;-0.974;2023-11-21T02:43:02;9.73;;;6.07;;
51438;SDS011;38816;51.142;-0.974;2023-11-21T02:45:30;11.35;;;6.13;;
51438;SDS011;38816;51.142;-0.974;2023-11-21T02:47:56;8.13;;;5.82;;
51438;SDS011;38816;51.142;-0.974;2023-11-21T02:50:22;7.43;;;5.45;;
51438;SDS011;38816;51.142;-0.974;2023-11-21T02:52:48;8.68;;;6.03;;
51438;SDS011;38816;51.142;-0.974;2023-11-21T02:55:14;7.00;;;6.22;;
51438;SDS011;38816;51.142;-0.974;2023-11-21T02:57:39;6.82;;;5.78;;
51438;SDS011;38816;51.142;-0.974;2023-11-21T03:00:05;9.43;;;6.22;;
51438;SDS011;38816;51.142;-0.974;2023-11-21T03:02:32;11.20;;;6.85;;
51438;SDS011;38816;51.142;-0.974;2023-11-21T03:04:59;12.65;;;6.93;;
51438;SDS011;38816;51.142;-0.974;2023-11-21T03:07:25;8.20;;;6.75;;
51438;SDS011;38816;51.142;-0.974;2023-11-21T03:09:50;12.57;;;7.97;;
51438;SDS011;38816;51.142;-0.974;2023-11-21T03:12:16;9.93;;;7.57;;
51438;SDS011;38816;51.142;-0.974;2023-11-21T03:14:41;10.93;;;7.43;;
51438;SDS011;38816;51.142;-0.974;2023-11-21T03:17:07;11.82;;;7.82;;
51438;SDS011;38816;51.142;-0.974;2023-11-21T03:19:32;10.20;;;7.70;;
51438;SDS011;38816;51.142;-0.974;2023-11-21T03:21:58;12.73;;;11.38;;
51438;SDS011;38816;51.142;-0.974;2023-11-21T03:24:23;9.63;;;7.90;;
51438;SDS011;38816;51.142;-0.974;2023-11-21T03:26:49;13.30;;;8.88;;
51438;SDS011;38816;51.142;-0.974;2023-11-21T03:29:16;9.07;;;7.72;;
51438;SDS011;38816;51.142;-0.974;2023-11-21T03:31:41;8.48;;;7.57;;
51438;SDS011;38816;51.142;-0.974;2023-11-21T03:34:09;8.60;;;7.53;;
51438;SDS011;38816;51.142;-0.974;2023-11-21T03:36:39;12.57;;;7.67;;
51438;SDS011;38816;51.142;-0.974;2023-11-21T03:39:04;9.18;;;7.82;;
51438;SDS011;38816;51.142;-0.974;2023-11-21T03:41:30;13.00;;;11.45;;
51438;SDS011;38816;51.142;-0.974;2023-11-21T03:43:55;10.23;;;8.82;;
51438;SDS011;38816;51.142;-0.974;2023-11-21T03:46:21;10.48;;;8.57;;
51438;SDS011;38816;51.142;-0.974;2023-11-21T03:48:46;12.45;;;8.55;;
51438;SDS011;38816;51.142;-0.974;2023-11-21T03:51:11;10.25;;;8.38;;
51438;SDS011;38816;51.142;-0.974;2023-11-21T03:53:37;12.00;;;8.65;;
51438;SDS011;38816;51.142;-0.974;2023-11-21T03:56:03;11.43;;;8.93;;
51438;SDS011;38816;51.142;-0.974;2023-11-21T03:58:29;11.43;;;9.20;;
51438;SDS011;38816;51.142;-0.974;2023-11-21T04:00:54;16.00;;;9.00;;
51438;SDS011;38816;51.142;-0.974;2023-11-21T04:03:19;11.30;;;9.35;;
51438;SDS011;38816;51.142;-0.974;2023-11-21T04:05:45;13.55;;;9.23;;
51438;SDS011;38816;51.142;-0.974;2023-11-21T04:08:11;12.57;;;9.85;;
51438;SDS011;38816;51.142;-0.974;2023-11-21T04:10:36;13.73;;;10.23;;
51438;SDS011;38816;51.142;-0.974;2023-11-21T04:13:01;11.80;;;9.20;;
51438;SDS011;38816;51.142;-0.974;2023-11-21T04:15:27;12.25;;;9.20;;
51438;SDS011;38816;51.142;-0.974;2023-11-21T04:17:52;12.77;;;9.20;;
51438;SDS011;38816;51.142;-0.974;2023-11-21T04:20:18;13.77;;;10.85;;
51438;SDS011;38816;51.142;-0.974;2023-11-21T04:22:44;12.93;;;10.00;;
51438;SDS011;38816;51.142;-0.974;2023-11-21T04:25:10;11.60;;;9.95;;
51438;SDS011;38816;51.142;-0.974;2023-11-21T04:27:41;12.35;;;9.70;;
51438;SDS011;38816;51.142;-0.974;2023-11-21T04:30:13;12.60;;;9.95;;
51438;SDS011;38816;51.142;-0.974;2023-11-21T04:32:39;14.20;;;10.63;;
51438;SDS011;38816;51.142;-0.974;2023-11-21T04:35:05;13.90;;;9.25;;
51438;SDS011;38816;51.142;-0.974;2023-11-21T04:37:31;11.32;;;9.18;;
51438;SDS011;38816;51.142;-0.974;2023-11-21T04:39:56;11.25;;;9.43;;
51438;SDS011;38816;51.142;-0.974;2023-11-21T04:42:22;14.05;;;11.05;;
51438;SDS011;38816;51.142;-0.974;2023-11-21T04:44:48;11.05;;;8.88;;
51438;SDS011;38816;51.142;-0.974;2023-11-21T04:47:14;10.23;;;8.35;;
51438;SDS011;38816;51.142;-0.974;2023-11-21T04:49:41;11.15;;;10.05;;
51438;SDS011;38816;51.142;-0.974;2023-11-21T04:52:08;12.93;;;11.75;;
51438;SDS011;38816;51.142;-0.974;2023-11-21T04:54:34;11.23;;;10.23;;
51438;SDS011;38816;51.142;-0.974;2023-11-21T04:57:00;11.13;;;9.68;;
51438;SDS011;38816;51.142;-0.974;2023-11-21T04:59:26;12.65;;;11.43;;
51438;SDS011;38816;51.142;-0.974;2023-11-21T05:01:52;8.70;;;7.95;;
51438;SDS011;38816;51.142;-0.974;2023-11-21T05:04:18;10.85;;;9.77;;
51438;SDS011;38816;51.142;-0.974;2023-11-21T05:06:44;10.43;;;8.35;;
51438;SDS011;38816;51.142;-0.974;2023-11-21T05:09:09;6.72;;;6.13;;
51438;SDS011;38816;51.142;-0.974;2023-11-21T05:11:37;10.57;;;9.73;;
51438;SDS011;38816;51.142;-0.974;2023-11-21T05:14:03;12.63;;;11.73;;
51438;SDS011;38816;51.142;-0.974;2023-11-21T05:16:30;6.07;;;5.47;;
51438;SDS011;38816;51.142;-0.974;2023-11-21T05:18:56;6.95;;;6.35;;
51438;SDS011;38816;51.142;-0.974;2023-11-21T05:21:26;3.60;;;3.25;;
51438;SDS011;38816;51.142;-0.974;2023-11-21T05:23:57;7.75;;;6.97;;
51438;SDS011;38816;51.142;-0.974;2023-11-21T05:26:23;6.00;;;5.53;;
51438;SDS011;38816;51.142;-0.974;2023-11-21T05:28:48;5.07;;;4.68;;
51438;SDS011;38816;51.142;-0.974;2023-11-21T05:31:13;3.22;;;2.83;;
51438;SDS011;38816;51.142;-0.974;2023-11-21T05:33:39;5.88;;;3.47;;
51438;SDS011;38816;51.142;-0.974;2023-11-21T05:36:06;7.25;;;4.97;;
51438;SDS011;38816;51.142;-0.974;2023-11-21T05:38:33;3.95;;;3.25;;
51438;SDS011;38816;51.142;-0.974;2023-11-21T05:40:58;3.72;;;3.33;;
51438;SDS011;38816;51.142;-0.974;2023-11-21T05:43:24;6.97;;;3.38;;
51438;SDS011;38816;51.142;-0.974;2023-11-21T05:45:49;5.10;;;4.70;;
51438;SDS011;38816;51.142;-0.974;2023-11-21T05:54:58;4.78;;;4.13;;
51438;SDS011;38816;51.142;-0.974;2023-11-21T05:57:24;3.83;;;3.53;;
51438;SDS011;38816;51.142;-0.974;2023-11-21T05:59:49;10.80;;;9.80;;
51438;SDS011;38816;51.142;-0.974;2023-11-21T06:02:15;5.22;;;4.35;;
51438;SDS011;38816;51.142;-0.974;2023-11-21T06:04:40;5.50;;;5.00;;
51438;SDS011;38816;51.142;-0.974;2023-11-21T06:07:05;3.72;;;3.40;;
51438;SDS011;38816;51.142;-0.974;2023-11-21T06:09:32;5.20;;;3.10;;
51438;SDS011;38816;51.142;-0.974;2023-11-21T06:11:57;3.97;;;3.67;;
51438;SDS011;38816;51.142;-0.974;2023-11-21T06:14:23;4.68;;;4.28;;
51438;SDS011;38816;51.142;-0.974;2023-11-21T06:16:49;4.97;;;3.25;;
51438;SDS011;38816;51.142;-0.974;2023-11-21T06:19:16;5.47;;;5.07;;
51438;SDS011;38816;51.142;-0.974;2023-11-21T06:21:45;3.15;;;2.83;;
51438;SDS011;38816;51.142;-0.974;2023-11-21T06:24:11;3.97;;;3.67;;
51438;SDS011;38816;51.142;-0.974;2023-11-21T06:26:36;5.15;;;3.47;;
51438;SDS011;38816;51.142;-0.974;2023-11-21T06:29:01;3.97;;;2.67;;
51438;SDS011;38816;51.142;-0.974;2023-11-21T06:31:28;3.67;;;2.72;;
51438;SDS011;38816;51.142;-0.974;2023-11-21T06:33:54;3.00;;;2.30;;
51438;SDS011;38816;51.142;-0.974;2023-11-21T06:36:19;3.47;;;2.50;;
51438;SDS011;38816;51.142;-0.974;2023-11-21T06:38:45;4.35;;;2.67;;
51438;SDS011;38816;51.142;-0.974;2023-11-21T06:41:11;3.40;;;3.10;;
51438;SDS011;38816;51.142;-0.974;2023-11-21T06:43:38;3.10;;;2.65;;
51438;SDS011;38816;51.142;-0.974;2023-11-21T06:46:04;3.35;;;2.83;;
51438;SDS011;38816;51.142;-0.974;2023-11-21T06:48:30;3.13;;;2.72;;
51438;SDS011;38816;51.142;-0.974;2023-11-21T06:50:56;4.07;;;3.78;;
51438;SDS011;38816;51.142;-0.974;2023-11-21T06:53:21;4.22;;;2.97;;
51438;SDS011;38816;51.142;-0.974;2023-11-21T06:55:47;4.93;;;3.65;;
51438;SDS011;38816;51.142;-0.974;2023-11-21T06:58:12;3.92;;;3.63;;
51438;SDS011;38816;51.142;-0.974;2023-11-21T07:00:39;3.78;;;3.47;;
51438;SDS011;38816;51.142;-0.974;2023-11-21T07:03:04;4.68;;;3.17;;
51438;SDS011;38816;51.142;-0.974;2023-11-21T07:05:30;3.60;;;3.30;;
51438;SDS011;38816;51.142;-0.974;2023-11-21T07:07:55;3.13;;;2.90;;
51438;SDS011;38816;51.142;-0.974;2023-11-21T07:10:21;3.10;;;2.90;;
51438;SDS011;38816;51.142;-0.974;2023-11-21T07:12:47;3.55;;;3.25;;
51438;SDS011;38816;51.142;-0.974;2023-11-21T07:15:12;3.10;;;2.85;;
51438;SDS011;38816;51.142;-0.974;2023-11-21T07:17:38;3.78;;;3.47;;
51438;SDS011;38816;51.142;-0.974;2023-11-21T07:20:05;4.90;;;3.22;;
51438;SDS011;38816;51.142;-0.974;2023-11-21T07:22:31;3.10;;;2.80;;
51438;SDS011;38816;51.142;-0.974;2023-11-21T07:24:57;4.82;;;3.30;;
51438;SDS011;38816;51.142;-0.974;2023-11-21T07:27:22;5.93;;;4.55;;
51438;SDS011;38816;51.142;-0.974;2023-11-21T07:29:48;5.15;;;2.95;;
51438;SDS011;38816;51.142;-0.974;2023-11-21T07:32:14;4.20;;;2.45;;
51438;SDS011;38816;51.142;-0.974;2023-11-21T07:34:40;3.30;;;3.00;;
51438;SDS011;38816;51.142;-0.974;2023-11-21T07:37:06;6.90;;;2.60;;
51438;SDS011;38816;51.142;-0.974;2023-11-21T07:39:33;5.15;;;2.95;;
51438;SDS011;38816;51.142;-0.974;2023-11-21T07:41:59;6.10;;;2.83;;
51438;SDS011;38816;51.142;-0.974;2023-11-21T07:44:25;4.00;;;3.15;;
51438;SDS011;38816;51.142;-0.974;2023-11-21T07:46:51;3.10;;;2.80;;
51438;SDS011;38816;51.142;-0.974;2023-11-21T07:49:17;6.88;;;2.85;;
51438;SDS011;38816;51.142;-0.974;2023-11-21T07:51:45;5.15;;;2.80;;
51438;SDS011;38816;51.142;-0.974;2023-11-21T07:54:11;7.25;;;3.72;;
51438;SDS011;38816;51.142;-0.974;2023-11-21T07:56:36;3.33;;;2.50;;
51438;SDS011;38816;51.142;-0.974;2023-11-21T07:59:01;2.95;;;2.67;;
51438;SDS011;38816;51.142;-0.974;2023-11-21T08:01:29;2.40;;;2.05;;
51438;SDS011;38816;51.142;-0.974;2023-11-21T08:04:00;2.00;;;1.90;;
51438;SDS011;38816;51.142;-0.974;2023-11-21T08:06:28;7.15;;;2.42;;
51438;SDS011;38816;51.142;-0.974;2023-11-21T08:08:55;3.42;;;2.20;;
51438;SDS011;38816;51.142;-0.974;2023-11-21T08:11:21;4.82;;;3.13;;
51438;SDS011;38816;51.142;-0.974;2023-11-21T08:13:47;2.88;;;2.20;;
51438;SDS011;38816;51.142;-0.974;2023-11-21T08:16:12;3.10;;;2.42;;
51438;SDS011;38816;51.142;-0.974;2023-11-21T08:18:38;3.33;;;2.38;;
51438;SDS011;38816;51.142;-0.974;2023-11-21T08:21:05;3.30;;;2.40;;
51438;SDS011;38816;51.142;-0.974;2023-11-21T08:23:30;4.30;;;3.17;;
51438;SDS011;38816;51.142;-0.974;2023-11-21T08:25:56;5.85;;;2.55;;
51438;SDS011;38816;51.142;-0.974;2023-11-21T08:28:21;4.45;;;2.67;;
51438;SDS011;38816;51.142;-0.974;2023-11-21T08:30:51;3.30;;;2.17;;
51438;SDS011;38816;51.142;-0.974;2023-11-21T08:33:22;3.60;;;2.90;;
51438;SDS011;38816;51.142;-0.974;2023-11-21T08:35:47;2.67;;;2.47;;
51438;SDS011;38816;51.142;-0.974;2023-11-21T08:38:13;3.60;;;2.50;;
51438;SDS011;38816;51.142;-0.974;2023-11-21T08:40:39;3.63;;;3.33;;
51438;SDS011;38816;51.142;-0.974;2023-11-21T08:43:04;2.67;;;2.47;;
51438;SDS011;38816;51.142;-0.974;2023-11-21T08:45:30;2.08;;;1.90;;
51438;SDS011;38816;51.142;-0.974;2023-11-21T08:47:57;2.53;;;2.33;;
51438;SDS011;38816;51.142;-0.974;2023-11-21T08:50:22;3.20;;;2.90;;
51438;SDS011;38816;51.142;-0.974;2023-11-21T08:52:48;2.67;;;2.38;;
51438;SDS011;38816;51.142;-0.974;2023-11-21T08:55:13;2.22;;;2.13;;
51438;SDS011;38816;51.142;-0.974;2023-11-21T08:57:40;4.75;;;3.55;;
51438;SDS011;38816;51.142;-0.974;2023-11-21T09:00:06;3.67;;;2.50;;
51438;SDS011;38816;51.142;-0.974;2023-11-21T09:02:34;4.47;;;4.10;;
51438;SDS011;38816;51.142;-0.974;2023-11-21T09:05:00;3.05;;;2.55;;
51438;SDS011;38816;51.142;-0.974;2023-11-21T09:07:28;3.42;;;3.13;;
51438;SDS011;38816;51.142;-0.974;2023-11-21T09:09:54;3.85;;;2.30;;
51438;SDS011;38816;51.142;-0.974;2023-11-21T09:12:19;3.10;;;2.80;;
51438;SDS011;38816;51.142;-0.974;2023-11-21T09:14:45;4.35;;;3.05;;
51438;SDS011;38816;51.142;-0.974;2023-11-21T09:17:11;2.58;;;2.38;;
51438;SDS011;38816;51.142;-0.974;2023-11-21T09:19:37;3.33;;;3.00;;
51438;SDS011;38816;51.142;-0.974;2023-11-21T09:22:03;3.15;;;2.90;;
51438;SDS011;38816;51.142;-0.974;2023-11-21T09:24:30;8.02;;;6.32;;
51438;SDS011;38816;51.142;-0.974;2023-11-21T09:27:00;4.05;;;2.33;;
51438;SDS011;38816;51.142;-0.974;2023-11-21T09:29:26;4.68;;;3.00;;
51438;SDS011;38816;51.142;-0.974;2023-11-21T09:31:52;4.15;;;3.75;;
51438;SDS011;38816;51.142;-0.974;2023-11-21T09:34:18;5.05;;;4.65;;
51438;SDS011;38816;51.142;-0.974;2023-11-21T09:36:45;2.90;;;2.70;;
51438;SDS011;38816;51.142;-0.974;2023-11-21T09:39:11;4.97;;;3.40;;
51438;SDS011;38816;51.142;-0.974;2023-11-21T09:41:43;4.53;;;3.38;;
51438;SDS011;38816;51.142;-0.974;2023-11-21T09:44:09;6.72;;;6.25;;
51438;SDS011;38816;51.142;-0.974;2023-11-21T09:46:42;4.68;;;2.97;;
51438;SDS011;38816;51.142;-0.974;2023-11-21T09:49:11;3.88;;;2.80;;
51438;SDS011;38816;51.142;-0.974;2023-11-21T09:51:42;3.15;;;2.92;;
51438;SDS011;38816;51.142;-0.974;2023-11-21T09:54:08;3.45;;;2.90;;
51438;SDS011;38816;51.142;-0.974;2023-11-21T09:56:39;4.95;;;4.18;;
51438;SDS011;38816;51.142;-0.974;2023-11-21T09:59:04;10.00;;;3.38;;
51438;SDS011;38816;51.142;-0.974;2023-11-21T10:01:33;4.20;;;3.08;;
51438;SDS011;38816;51.142;-0.974;2023-11-21T10:04:01;4.45;;;2.63;;
51438;SDS011;38816;51.142;-0.974;2023-11-21T10:06:27;6.65;;;4.32;;
51438;SDS011;38816;51.142;-0.974;2023-11-21T10:08:54;2.75;;;2.50;;
51438;SDS011;38816;51.142;-0.974;2023-11-21T10:11:23;5.60;;;3.00;;
51438;SDS011;38816;51.142;-0.974;2023-11-21T10:13:54;2.75;;;2.47;;
51438;SDS011;38816;51.142;-0.974;2023-11-21T10:16:22;2.50;;;2.30;;
51438;SDS011;38816;51.142;-0.974;2023-11-21T10:18:52;3.30;;;2.65;;
51438;SDS011;38816;51.142;-0.974;2023-11-21T10:21:20;4.32;;;2.55;;
51438;SDS011;38816;51.142;-0.974;2023-11-21T10:23:46;2.75;;;2.45;;
51438;SDS011;38816;51.142;-0.974;2023-11-21T10:26:12;3.72;;;2.60;;
51438;SDS011;38816;51.142;-0.974;2023-11-21T10:29:02;3.85;;;2.65;;
51438;SDS011;38816;51.142;-0.974;2023-11-21T10:31:31;2.53;;;2.33;;
51438;SDS011;38816;51.142;-0.974;2023-11-21T10:36:43;2.58;;;2.38;;
51438;SDS011;38816;51.142;-0.974;2023-11-21T10:39:09;2.72;;;2.53;;
51438;SDS011;38816;51.142;-0.974;2023-11-21T10:41:43;1.90;;;1.80;;
51438;SDS011;38816;51.142;-0.974;2023-11-21T10:44:10;2.30;;;2.10;;
51438;SDS011;38816;51.142;-0.974;2023-11-21T10:46:36;7.07;;;2.10;;
51438;SDS011;38816;51.142;-0.974;2023-11-21T10:49:01;4.30;;;2.15;;
51438;SDS011;38816;51.142;-0.974;2023-11-21T10:51:27;2.88;;;2.30;;
51438;SDS011;38816;51.142;-0.974;2023-11-21T10:53:53;3.65;;;2.55;;
51438;SDS011;38816;51.142;-0.974;2023-11-21T10:56:19;4.13;;;2.45;;
51438;SDS011;38816;51.142;-0.974;2023-11-21T10:58:51;3.95;;;3.33;;
51438;SDS011;38816;51.142;-0.974;2023-11-21T11:01:18;3.70;;;2.47;;
51438;SDS011;38816;51.142;-0.974;2023-11-21T11:03:46;4.60;;;3.03;;
51438;SDS011;38816;51.142;-0.974;2023-11-21T11:06:13;2.88;;;2.67;;
51438;SDS011;38816;51.142;-0.974;2023-11-21T11:08:40;3.38;;;2.97;;
51438;SDS011;38816;51.142;-0.974;2023-11-21T11:11:05;4.40;;;2.78;;
51438;SDS011;38816;51.142;-0.974;2023-11-21T11:13:32;3.58;;;3.28;;
51438;SDS011;38816;51.142;-0.974;2023-11-21T11:15:58;2.72;;;2.53;;
51438;SDS011;38816;51.142;-0.974;2023-11-21T11:18:25;3.38;;;3.03;;
51438;SDS011;38816;51.142;-0.974;2023-11-21T11:20:51;3.58;;;3.28;;
51438;SDS011;38816;51.142;-0.974;2023-11-21T11:36:44;3.67;;;3.38;;
51438;SDS011;38816;51.142;-0.974;2023-11-21T11:41:55;3.53;;;3.05;;
51438;SDS011;38816;51.142;-0.974;2023-11-21T11:47:23;3.90;;;3.50;;
51438;SDS011;38816;51.142;-0.974;2023-11-21T11:55:05;3.55;;;3.25;;
51438;SDS011;38816;51.142;-0.974;2023-11-21T11:57:34;3.10;;;2.90;;
51438;SDS011;38816;51.142;-0.974;2023-11-21T12:00:07;3.85;;;3.53;;
51438;SDS011;38816;51.142;-0.974;2023-11-21T12:02:36;3.78;;;3.40;;
51438;SDS011;38816;51.142;-0.974;2023-11-21T12:05:07;3.17;;;2.97;;
51438;SDS011;38816;51.142;-0.974;2023-11-21T12:07:53;4.25;;;2.97;;
51438;SDS011;38816;51.142;-0.974;2023-11-21T12:10:32;4.00;;;3.70;;
51438;SDS011;38816;51.142;-0.974;2023-11-21T12:13:00;3.08;;;2.72;;
51438;SDS011;38816;51.142;-0.974;2023-11-21T12:15:27;4.75;;;4.20;;
51438;SDS011;38816;51.142;-0.974;2023-11-21T12:17:56;4.05;;;3.38;;
51438;SDS011;38816;51.142;-0.974;2023-11-21T12:20:25;3.50;;;2.95;;
51438;SDS011;38816;51.142;-0.974;2023-11-21T12:22:53;2.92;;;2.70;;
51438;SDS011;38816;51.142;-0.974;2023-11-21T12:25:20;4.43;;;2.78;;
51438;SDS011;38816;51.142;-0.974;2023-11-21T12:27:48;5.35;;;3.10;;
51438;SDS011;38816;51.142;-0.974;2023-11-21T12:30:15;4.63;;;3.35;;
51438;SDS011;38816;51.142;-0.974;2023-11-21T12:32:47;4.43;;;4.03;;
51438;SDS011;38816;51.142;-0.974;2023-11-21T12:35:16;3.97;;;3.17;;
51438;SDS011;38816;51.142;-0.974;2023-11-21T12:37:44;3.25;;;2.67;;
51438;SDS011;38816;51.142;-0.974;2023-11-21T12:40:10;3.80;;;3.15;;
51438;SDS011;38816;51.142;-0.974;2023-11-21T12:42:40;3.45;;;2.97;;
51438;SDS011;38816;51.142;-0.974;2023-11-21T12:45:18;5.13;;;3.42;;
51438;SDS011;38816;51.142;-0.974;2023-11-21T12:47:45;4.07;;;3.38;;
51438;SDS011;38816;51.142;-0.974;2023-11-21T12:50:22;3.83;;;3.53;;
51438;SDS011;38816;51.142;-0.974;2023-11-21T12:52:49;4.28;;;3.90;;
51438;SDS011;38816;51.142;-0.974;2023-11-21T12:55:18;5.63;;;4.75;;
51438;SDS011;38816;51.142;-0.974;2023-11-21T12:57:49;4.13;;;3.75;;
51438;SDS011;38816;51.142;-0.974;2023-11-21T13:00:32;3.78;;;3.47;;
51438;SDS011;38816;51.142;-0.974;2023-11-21T13:03:02;6.88;;;5.30;;
51438;SDS011;38816;51.142;-0.974;2023-11-21T13:05:38;4.18;;;3.78;;
51438;SDS011;38816;51.142;-0.974;2023-11-21T13:08:07;3.67;;;3.38;;
51438;SDS011;38816;51.142;-0.974;2023-11-21T13:10:37;3.58;;;3.28;;
51438;SDS011;38816;51.142;-0.974;2023-11-21T13:13:09;2.95;;;2.75;;
51438;SDS011;38816;51.142;-0.974;2023-11-21T13:15:52;3.88;;;3.58;;
51438;SDS011;38816;51.142;-0.974;2023-11-21T13:18:30;3.20;;;3.00;;
51438;SDS011;38816;51.142;-0.974;2023-11-21T13:20:57;3.10;;;2.90;;
51438;SDS011;38816;51.142;-0.974;2023-11-21T13:23:35;4.63;;;2.97;;
51438;SDS011;38816;51.142;-0.974;2023-11-21T13:26:03;3.33;;;3.03;;
51438;SDS011;38816;51.142;-0.974;2023-11-21T13:28:33;3.50;;;3.20;;
51438;SDS011;38816;51.142;-0.974;2023-11-21T13:31:00;2.75;;;2.55;;
51438;SDS011;38816;51.142;-0.974;2023-11-21T13:33:28;3.58;;;3.30;;
51438;SDS011;38816;51.142;-0.974;2023-11-21T13:35:53;3.50;;;3.20;;
51438;SDS011;38816;51.142;-0.974;2023-11-21T13:38:21;3.50;;;3.10;;
51438;SDS011;38816;51.142;-0.974;2023-11-21T13:40:49;2.30;;;2.10;;
51438;SDS011;38816;51.142;-0.974;2023-11-21T13:43:18;3.10;;;2.63;;
51438;SDS011;38816;51.142;-0.974;2023-11-21T13:45:46;3.33;;;2.80;;
51438;SDS011;38816;51.142;-0.974;2023-11-21T13:48:15;4.65;;;2.80;;
51438;SDS011;38816;51.142;-0.974;2023-11-21T13:50:53;4.15;;;3.25;;
51438;SDS011;38816;51.142;-0.974;2023-11-21T13:53:27;3.95;;;3.55;;
51438;SDS011;38816;51.142;-0.974;2023-11-21T13:55:53;4.30;;;3.00;;
51438;SDS011;38816;51.142;-0.974;2023-11-21T13:58:25;2.63;;;2.42;;
51438;SDS011;38816;51.142;-0.974;2023-11-21T14:01:09;3.45;;;2.95;;
51438;SDS011;38816;51.142;-0.974;2023-11-21T14:03:53;2.83;;;2.63;;
51438;SDS011;38816;51.142;-0.974;2023-11-21T14:06:23;3.85;;;2.65;;
51438;SDS011;38816;51.142;-0.974;2023-11-21T14:08:57;3.92;;;3.67;;
51438;SDS011;38816;51.142;-0.974;2023-11-21T14:11:24;3.45;;;3.25;;
51438;SDS011;38816;51.142;-0.974;2023-11-21T14:13:49;3.10;;;2.90;;
51438;SDS011;38816;51.142;-0.974;2023-11-21T14:16:15;3.22;;;3.03;;
51438;SDS011;38816;51.142;-0.974;2023-11-21T14:18:42;3.50;;;3.30;;
51438;SDS011;38816;51.142;-0.974;2023-11-21T14:21:20;5.47;;;4.90;;
51438;SDS011;38816;51.142;-0.974;2023-11-21T14:23:46;3.30;;;3.10;;
51438;SDS011;38816;51.142;-0.974;2023-11-21T14:26:13;3.58;;;3.38;;
51438;SDS011;38816;51.142;-0.974;2023-11-21T14:28:40;3.30;;;2.67;;
51438;SDS011;38816;51.142;-0.974;2023-11-21T14:31:06;5.03;;;3.15;;
51438;SDS011;38816;51.142;-0.974;2023-11-21T14:33:32;4.68;;;3.20;;
51438;SDS011;38816;51.142;-0.974;2023-11-21T14:35:58;4.18;;;3.63;;
51438;SDS011;38816;51.142;-0.974;2023-11-21T14:38:24;3.70;;;3.00;;
51438;SDS011;38816;51.142;-0.974;2023-11-21T14:40:49;4.25;;;3.13;;
51438;SDS011;38816;51.142;-0.974;2023-11-21T14:43:15;3.90;;;3.40;;
51438;SDS011;38816;51.142;-0.974;2023-11-21T14:45:41;6.25;;;3.10;;
51438;SDS011;38816;51.142;-0.974;2023-11-21T14:48:07;4.10;;;3.33;;
51438;SDS011;38816;51.142;-0.974;2023-11-21T14:50:51;5.38;;;3.60;;
51438;SDS011;38816;51.142;-0.974;2023-11-21T14:53:31;5.82;;;4.05;;
51438;SDS011;38816;51.142;-0.974;2023-11-21T14:56:18;4.03;;;3.72;;
51438;SDS011;38816;51.142;-0.974;2023-11-21T14:58:51;5.25;;;3.95;;
51438;SDS011;38816;51.142;-0.974;2023-11-21T15:01:30;5.43;;;4.93;;
51438;SDS011;38816;51.142;-0.974;2023-11-21T15:04:20;5.57;;;5.05;;
51438;SDS011;38816;51.142;-0.974;2023-11-21T15:07:00;6.63;;;4.22;;